sensor_id;sensor_type;location;lat;lon;timestamp;P1;durP1;ratioP1;P2;durP2;ratioP2
22070;SDS011;11200;51.488;6.668;2022-09-13T00:00:51;4.47;;;3.60;;
22070;SDS011;11200;51.488;6.668;2022-09-13T00:03:17;4.15;;;3.75;;
22070;SDS011;11200;51.488;6.668;2022-09-13T00:05:44;3.92;;;3.58;;
22070;SDS011;11200;51.488;6.668;2022-09-13T00:08:10;4.10;;;3.42;;
22070;SDS011;11200;51.488;6.668;2022-09-13T00:10:37;3.97;;;3.67;;
22070;SDS011;11200;51.488;6.668;2022-09-13T00:13:04;3.75;;;3.42;;
22070;SDS011;11200;51.488;6.668;2022-09-13T00:15:30;4.03;;;3.63;;
22070;SDS011;11200;51.488;6.668;2022-09-13T00:17:56;3.67;;;3.35;;
22070;SDS011;11200;51.488;6.668;2022-09-13T00:20:22;3.67;;;3.38;;
22070;SDS011;11200;51.488;6.668;2022-09-13T00:22:48;4.70;;;3.78;;
22070;SDS011;11200;51.488;6.668;2022-09-13T00:25:13;3.55;;;3.25;;
22070;SDS011;11200;51.488;6.668;2022-09-13T00:27:39;3.53;;;3.13;;
22070;SDS011;11200;51.488;6.668;2022-09-13T00:30:05;3.50;;;3.20;;
22070;SDS011;11200;51.488;6.668;2022-09-13T00:32:32;4.35;;;3.58;;
22070;SDS011;11200;51.488;6.668;2022-09-13T00:35:00;3.83;;;3.50;;
22070;SDS011;11200;51.488;6.668;2022-09-13T00:37:27;3.72;;;3.38;;
22070;SDS011;11200;51.488;6.668;2022-09-13T00:39:52;3.75;;;3.45;;
22070;SDS011;11200;51.488;6.668;2022-09-13T00:42:23;3.33;;;3.03;;
22070;SDS011;11200;51.488;6.668;2022-09-13T00:49:52;4.03;;;3.38;;
22070;SDS011;11200;51.488;6.668;2022-09-13T00:52:22;3.45;;;3.15;;
22070;SDS011;11200;51.488;6.668;2022-09-13T00:54:52;3.65;;;3.30;;
22070;SDS011;11200;51.488;6.668;2022-09-13T00:57:24;3.90;;;3.60;;
22070;SDS011;11200;51.488;6.668;2022-09-13T00:59:52;3.95;;;3.30;;
22070;SDS011;11200;51.488;6.668;2022-09-13T01:02:43;3.50;;;3.20;;
22070;SDS011;11200;51.488;6.668;2022-09-13T01:05:24;3.58;;;3.28;;
22070;SDS011;11200;51.488;6.668;2022-09-13T01:07:53;3.58;;;3.28;;
22070;SDS011;11200;51.488;6.668;2022-09-13T01:10:19;3.70;;;3.40;;
22070;SDS011;11200;51.488;6.668;2022-09-13T01:13:01;3.78;;;3.22;;
22070;SDS011;11200;51.488;6.668;2022-09-13T01:15:37;3.90;;;3.40;;
22070;SDS011;11200;51.488;6.668;2022-09-13T01:18:02;3.38;;;3.08;;
22070;SDS011;11200;51.488;6.668;2022-09-13T01:25:56;3.83;;;3.42;;
22070;SDS011;11200;51.488;6.668;2022-09-13T01:34:18;4.07;;;3.30;;
22070;SDS011;11200;51.488;6.668;2022-09-13T01:39:56;3.38;;;3.08;;
22070;SDS011;11200;51.488;6.668;2022-09-13T01:48:22;3.53;;;3.17;;
22070;SDS011;11200;51.488;6.668;2022-09-13T01:51:00;3.40;;;3.10;;
22070;SDS011;11200;51.488;6.668;2022-09-13T01:56:41;3.33;;;3.03;;
22070;SDS011;11200;51.488;6.668;2022-09-13T02:01:44;4.00;;;3.10;;
22070;SDS011;11200;51.488;6.668;2022-09-13T02:04:16;3.42;;;3.13;;
22070;SDS011;11200;51.488;6.668;2022-09-13T02:06:47;4.03;;;3.00;;
22070;SDS011;11200;51.488;6.668;2022-09-13T02:09:31;4.30;;;3.00;;
22070;SDS011;11200;51.488;6.668;2022-09-13T02:12:02;3.58;;;3.28;;
22070;SDS011;11200;51.488;6.668;2022-09-13T02:14:43;3.30;;;3.00;;
22070;SDS011;11200;51.488;6.668;2022-09-13T02:17:14;3.40;;;3.08;;
22070;SDS011;11200;51.488;6.668;2022-09-13T02:19:46;3.60;;;2.85;;
22070;SDS011;11200;51.488;6.668;2022-09-13T02:22:17;3.63;;;3.20;;
22070;SDS011;11200;51.488;6.668;2022-09-13T02:24:47;3.42;;;3.13;;
22070;SDS011;11200;51.488;6.668;2022-09-13T02:27:19;3.70;;;3.33;;
22070;SDS011;11200;51.488;6.668;2022-09-13T02:29:49;4.35;;;3.05;;
22070;SDS011;11200;51.488;6.668;2022-09-13T02:32:23;2.78;;;2.58;;
22070;SDS011;11200;51.488;6.668;2022-09-13T02:35:07;3.08;;;2.85;;
22070;SDS011;11200;51.488;6.668;2022-09-13T02:37:47;3.50;;;3.10;;
22070;SDS011;11200;51.488;6.668;2022-09-13T02:40:19;3.33;;;3.00;;
22070;SDS011;11200;51.488;6.668;2022-09-13T02:42:50;2.97;;;2.78;;
22070;SDS011;11200;51.488;6.668;2022-09-13T02:45:21;2.92;;;2.63;;
22070;SDS011;11200;51.488;6.668;2022-09-13T02:47:55;3.50;;;2.88;;
22070;SDS011;11200;51.488;6.668;2022-09-13T02:56:06;3.05;;;2.83;;
22070;SDS011;11200;51.488;6.668;2022-09-13T03:01:16;2.88;;;2.58;;
22070;SDS011;11200;51.488;6.668;2022-09-13T03:03:42;3.22;;;2.92;;
22070;SDS011;11200;51.488;6.668;2022-09-13T03:06:08;3.33;;;3.00;;
22070;SDS011;11200;51.488;6.668;2022-09-13T03:08:34;3.28;;;2.97;;
22070;SDS011;11200;51.488;6.668;2022-09-13T03:11:10;3.10;;;2.80;;
22070;SDS011;11200;51.488;6.668;2022-09-13T03:22:13;3.33;;;2.90;;
22070;SDS011;11200;51.488;6.668;2022-09-13T03:25:07;3.60;;;2.88;;
22070;SDS011;11200;51.488;6.668;2022-09-13T03:30:25;3.03;;;2.65;;
22070;SDS011;11200;51.488;6.668;2022-09-13T03:35:36;3.67;;;2.67;;
22070;SDS011;11200;51.488;6.668;2022-09-13T03:38:20;3.75;;;2.90;;
22070;SDS011;11200;51.488;6.668;2022-09-13T03:45:59;3.25;;;2.90;;
22070;SDS011;11200;51.488;6.668;2022-09-13T03:48:29;3.22;;;2.72;;
22070;SDS011;11200;51.488;6.668;2022-09-13T03:50:56;3.20;;;2.90;;
22070;SDS011;11200;51.488;6.668;2022-09-13T03:53:22;3.13;;;2.83;;
22070;SDS011;11200;51.488;6.668;2022-09-13T03:55:51;2.67;;;2.47;;
22070;SDS011;11200;51.488;6.668;2022-09-13T03:58:19;3.13;;;2.60;;
22070;SDS011;11200;51.488;6.668;2022-09-13T04:00:46;2.97;;;2.67;;
22070;SDS011;11200;51.488;6.668;2022-09-13T04:03:12;3.15;;;2.85;;
22070;SDS011;11200;51.488;6.668;2022-09-13T04:05:38;3.30;;;3.00;;
22070;SDS011;11200;51.488;6.668;2022-09-13T04:08:04;2.88;;;2.60;;
22070;SDS011;11200;51.488;6.668;2022-09-13T04:10:31;2.78;;;2.50;;
22070;SDS011;11200;51.488;6.668;2022-09-13T04:12:58;2.75;;;2.45;;
22070;SDS011;11200;51.488;6.668;2022-09-13T04:15:24;3.45;;;3.00;;
22070;SDS011;11200;51.488;6.668;2022-09-13T04:17:50;3.05;;;2.55;;
22070;SDS011;11200;51.488;6.668;2022-09-13T04:20:16;2.80;;;2.60;;
22070;SDS011;11200;51.488;6.668;2022-09-13T04:22:42;2.95;;;2.42;;
22070;SDS011;11200;51.488;6.668;2022-09-13T04:25:07;2.55;;;2.35;;
22070;SDS011;11200;51.488;6.668;2022-09-13T04:27:33;2.88;;;2.42;;
22070;SDS011;11200;51.488;6.668;2022-09-13T04:30:02;2.80;;;2.50;;
22070;SDS011;11200;51.488;6.668;2022-09-13T04:32:28;2.80;;;2.60;;
22070;SDS011;11200;51.488;6.668;2022-09-13T04:34:54;2.58;;;2.38;;
22070;SDS011;11200;51.488;6.668;2022-09-13T04:37:19;2.75;;;2.45;;
22070;SDS011;11200;51.488;6.668;2022-09-13T04:39:45;2.83;;;2.10;;
22070;SDS011;11200;51.488;6.668;2022-09-13T04:42:10;2.60;;;2.40;;
22070;SDS011;11200;51.488;6.668;2022-09-13T04:44:37;3.25;;;2.50;;
22070;SDS011;11200;51.488;6.668;2022-09-13T04:47:03;2.95;;;2.75;;
22070;SDS011;11200;51.488;6.668;2022-09-13T04:49:29;2.67;;;2.47;;
22070;SDS011;11200;51.488;6.668;2022-09-13T04:51:55;3.25;;;2.85;;
22070;SDS011;11200;51.488;6.668;2022-09-13T04:54:21;2.92;;;2.42;;
22070;SDS011;11200;51.488;6.668;2022-09-13T04:56:47;2.60;;;2.40;;
22070;SDS011;11200;51.488;6.668;2022-09-13T04:59:13;2.70;;;2.50;;
22070;SDS011;11200;51.488;6.668;2022-09-13T05:01:44;3.08;;;2.50;;
22070;SDS011;11200;51.488;6.668;2022-09-13T05:04:10;2.40;;;2.20;;
22070;SDS011;11200;51.488;6.668;2022-09-13T05:06:39;3.20;;;2.53;;
22070;SDS011;11200;51.488;6.668;2022-09-13T05:09:04;2.80;;;2.60;;
22070;SDS011;11200;51.488;6.668;2022-09-13T05:11:30;3.42;;;2.60;;
22070;SDS011;11200;51.488;6.668;2022-09-13T05:13:57;3.08;;;2.47;;
22070;SDS011;11200;51.488;6.668;2022-09-13T05:16:24;2.65;;;2.42;;
22070;SDS011;11200;51.488;6.668;2022-09-13T05:18:52;2.67;;;2.40;;
22070;SDS011;11200;51.488;6.668;2022-09-13T05:21:18;2.50;;;2.30;;
22070;SDS011;11200;51.488;6.668;2022-09-13T05:23:44;2.50;;;2.30;;
22070;SDS011;11200;51.488;6.668;2022-09-13T05:26:12;3.38;;;2.35;;
22070;SDS011;11200;51.488;6.668;2022-09-13T05:28:38;2.72;;;2.40;;
22070;SDS011;11200;51.488;6.668;2022-09-13T05:33:35;2.70;;;2.50;;
22070;SDS011;11200;51.488;6.668;2022-09-13T05:36:02;3.22;;;2.45;;
22070;SDS011;11200;51.488;6.668;2022-09-13T05:38:30;2.80;;;2.60;;
22070;SDS011;11200;51.488;6.668;2022-09-13T05:40:57;2.50;;;2.25;;
22070;SDS011;11200;51.488;6.668;2022-09-13T05:43:29;2.60;;;2.40;;
22070;SDS011;11200;51.488;6.668;2022-09-13T05:46:00;2.97;;;2.55;;
22070;SDS011;11200;51.488;6.668;2022-09-13T05:48:31;2.65;;;2.45;;
22070;SDS011;11200;51.488;6.668;2022-09-13T05:53:31;4.32;;;2.58;;
22070;SDS011;11200;51.488;6.668;2022-09-13T05:55:57;3.10;;;2.55;;
22070;SDS011;11200;51.488;6.668;2022-09-13T05:58:23;2.55;;;2.35;;
22070;SDS011;11200;51.488;6.668;2022-09-13T06:00:55;2.63;;;2.30;;
22070;SDS011;11200;51.488;6.668;2022-09-13T06:03:22;3.40;;;2.20;;
22070;SDS011;11200;51.488;6.668;2022-09-13T06:05:48;2.92;;;2.65;;
22070;SDS011;11200;51.488;6.668;2022-09-13T06:08:13;2.30;;;2.10;;
22070;SDS011;11200;51.488;6.668;2022-09-13T06:10:40;2.58;;;2.38;;
22070;SDS011;11200;51.488;6.668;2022-09-13T06:13:06;3.53;;;2.33;;
22070;SDS011;11200;51.488;6.668;2022-09-13T06:15:32;2.60;;;2.40;;
22070;SDS011;11200;51.488;6.668;2022-09-13T06:17:57;3.15;;;2.60;;
22070;SDS011;11200;51.488;6.668;2022-09-13T06:20:23;2.80;;;2.50;;
22070;SDS011;11200;51.488;6.668;2022-09-13T06:22:49;3.38;;;2.70;;
22070;SDS011;11200;51.488;6.668;2022-09-13T06:25:14;2.70;;;2.47;;
22070;SDS011;11200;51.488;6.668;2022-09-13T06:27:40;2.58;;;2.38;;
22070;SDS011;11200;51.488;6.668;2022-09-13T06:30:06;2.70;;;2.50;;
22070;SDS011;11200;51.488;6.668;2022-09-13T06:32:33;2.65;;;2.45;;
22070;SDS011;11200;51.488;6.668;2022-09-13T06:34:59;2.60;;;2.40;;
22070;SDS011;11200;51.488;6.668;2022-09-13T06:37:25;2.33;;;2.10;;
22070;SDS011;11200;51.488;6.668;2022-09-13T06:39:50;2.60;;;2.40;;
22070;SDS011;11200;51.488;6.668;2022-09-13T06:42:16;2.60;;;2.40;;
22070;SDS011;11200;51.488;6.668;2022-09-13T06:44:42;2.67;;;2.42;;
22070;SDS011;11200;51.488;6.668;2022-09-13T06:47:09;2.78;;;2.58;;
22070;SDS011;11200;51.488;6.668;2022-09-13T06:49:36;2.83;;;2.30;;
22070;SDS011;11200;51.488;6.668;2022-09-13T06:52:01;2.53;;;2.33;;
22070;SDS011;11200;51.488;6.668;2022-09-13T06:54:27;2.90;;;2.42;;
22070;SDS011;11200;51.488;6.668;2022-09-13T06:56:53;2.72;;;2.50;;
22070;SDS011;11200;51.488;6.668;2022-09-13T06:59:18;2.78;;;2.15;;
22070;SDS011;11200;51.488;6.668;2022-09-13T07:01:44;2.40;;;2.20;;
22070;SDS011;11200;51.488;6.668;2022-09-13T07:04:14;2.75;;;2.40;;
22070;SDS011;11200;51.488;6.668;2022-09-13T07:06:42;3.00;;;2.70;;
22070;SDS011;11200;51.488;6.668;2022-09-13T07:09:11;3.00;;;2.30;;
22070;SDS011;11200;51.488;6.668;2022-09-13T07:11:39;3.15;;;2.60;;
22070;SDS011;11200;51.488;6.668;2022-09-13T07:14:06;3.42;;;2.50;;
22070;SDS011;11200;51.488;6.668;2022-09-13T07:16:33;3.70;;;2.50;;
22070;SDS011;11200;51.488;6.668;2022-09-13T07:19:02;2.97;;;2.65;;
22070;SDS011;11200;51.488;6.668;2022-09-13T07:21:30;2.90;;;2.60;;
22070;SDS011;11200;51.488;6.668;2022-09-13T07:23:57;2.63;;;2.13;;
22070;SDS011;11200;51.488;6.668;2022-09-13T07:26:23;2.50;;;2.30;;
22070;SDS011;11200;51.488;6.668;2022-09-13T07:28:52;2.28;;;2.08;;
22070;SDS011;11200;51.488;6.668;2022-09-13T07:31:20;2.70;;;2.20;;
22070;SDS011;11200;51.488;6.668;2022-09-13T07:33:53;2.90;;;2.58;;
22070;SDS011;11200;51.488;6.668;2022-09-13T07:36:23;2.92;;;2.42;;
22070;SDS011;11200;51.488;6.668;2022-09-13T07:38:49;2.30;;;2.10;;
22070;SDS011;11200;51.488;6.668;2022-09-13T07:41:19;2.90;;;2.60;;
22070;SDS011;11200;51.488;6.668;2022-09-13T07:43:46;2.90;;;2.30;;
22070;SDS011;11200;51.488;6.668;2022-09-13T07:46:16;3.00;;;2.50;;
22070;SDS011;11200;51.488;6.668;2022-09-13T07:48:43;2.83;;;2.30;;
22070;SDS011;11200;51.488;6.668;2022-09-13T07:51:14;3.22;;;2.42;;
22070;SDS011;11200;51.488;6.668;2022-09-13T07:53:41;3.45;;;2.55;;
22070;SDS011;11200;51.488;6.668;2022-09-13T07:56:09;2.70;;;2.50;;
22070;SDS011;11200;51.488;6.668;2022-09-13T07:58:37;2.58;;;2.38;;
22070;SDS011;11200;51.488;6.668;2022-09-13T08:01:07;3.65;;;2.85;;
22070;SDS011;11200;51.488;6.668;2022-09-13T08:03:44;2.72;;;2.38;;
22070;SDS011;11200;51.488;6.668;2022-09-13T08:06:43;3.13;;;2.42;;
22070;SDS011;11200;51.488;6.668;2022-09-13T08:09:10;2.88;;;2.47;;
22070;SDS011;11200;51.488;6.668;2022-09-13T08:11:46;2.97;;;2.30;;
22070;SDS011;11200;51.488;6.668;2022-09-13T08:14:19;3.72;;;2.72;;
22070;SDS011;11200;51.488;6.668;2022-09-13T08:16:46;2.70;;;2.50;;
22070;SDS011;11200;51.488;6.668;2022-09-13T08:19:13;2.60;;;2.40;;
22070;SDS011;11200;51.488;6.668;2022-09-13T08:21:41;4.43;;;2.88;;
22070;SDS011;11200;51.488;6.668;2022-09-13T08:24:10;3.15;;;2.30;;
22070;SDS011;11200;51.488;6.668;2022-09-13T08:26:41;3.35;;;2.80;;
22070;SDS011;11200;51.488;6.668;2022-09-13T08:29:07;2.55;;;2.35;;
22070;SDS011;11200;51.488;6.668;2022-09-13T08:31:35;3.45;;;2.30;;
22070;SDS011;11200;51.488;6.668;2022-09-13T08:34:00;2.88;;;2.50;;
22070;SDS011;11200;51.488;6.668;2022-09-13T08:36:27;2.70;;;2.50;;
22070;SDS011;11200;51.488;6.668;2022-09-13T08:38:54;3.75;;;2.80;;
22070;SDS011;11200;51.488;6.668;2022-09-13T08:44:13;2.78;;;2.53;;
22070;SDS011;11200;51.488;6.668;2022-09-13T08:47:08;3.00;;;2.70;;
22070;SDS011;11200;51.488;6.668;2022-09-13T08:49:59;3.00;;;2.70;;
22070;SDS011;11200;51.488;6.668;2022-09-13T08:52:39;3.38;;;2.42;;
22070;SDS011;11200;51.488;6.668;2022-09-13T08:55:22;3.20;;;2.90;;
22070;SDS011;11200;51.488;6.668;2022-09-13T09:00:53;4.10;;;3.13;;
22070;SDS011;11200;51.488;6.668;2022-09-13T09:03:30;3.05;;;2.80;;
22070;SDS011;11200;51.488;6.668;2022-09-13T09:06:12;3.28;;;2.97;;
22070;SDS011;11200;51.488;6.668;2022-09-13T09:11:13;3.05;;;2.72;;
22070;SDS011;11200;51.488;6.668;2022-09-13T09:13:48;3.53;;;2.80;;
22070;SDS011;11200;51.488;6.668;2022-09-13T09:19:07;3.83;;;2.72;;
22070;SDS011;11200;51.488;6.668;2022-09-13T09:21:40;2.60;;;2.40;;
22070;SDS011;11200;51.488;6.668;2022-09-13T09:24:10;3.15;;;2.72;;
22070;SDS011;11200;51.488;6.668;2022-09-13T09:26:47;3.20;;;2.90;;
22070;SDS011;11200;51.488;6.668;2022-09-13T09:29:17;3.03;;;2.78;;
22070;SDS011;11200;51.488;6.668;2022-09-13T09:37:22;3.33;;;2.95;;
22070;SDS011;11200;51.488;6.668;2022-09-13T09:39:51;3.67;;;2.80;;
22070;SDS011;11200;51.488;6.668;2022-09-13T09:42:28;2.90;;;2.70;;
22070;SDS011;11200;51.488;6.668;2022-09-13T09:45:13;3.38;;;2.60;;
22070;SDS011;11200;51.488;6.668;2022-09-13T09:47:49;3.10;;;2.90;;
22070;SDS011;11200;51.488;6.668;2022-09-13T09:50:35;3.03;;;2.55;;
22070;SDS011;11200;51.488;6.668;2022-09-13T09:53:09;2.95;;;2.70;;
22070;SDS011;11200;51.488;6.668;2022-09-13T09:55:56;2.90;;;2.53;;
22070;SDS011;11200;51.488;6.668;2022-09-13T09:58:36;2.75;;;2.47;;
22070;SDS011;11200;51.488;6.668;2022-09-13T10:01:04;3.10;;;2.53;;
22070;SDS011;11200;51.488;6.668;2022-09-13T10:03:38;3.45;;;2.80;;
22070;SDS011;11200;51.488;6.668;2022-09-13T10:06:11;3.35;;;2.95;;
22070;SDS011;11200;51.488;6.668;2022-09-13T10:08:42;2.95;;;2.70;;
22070;SDS011;11200;51.488;6.668;2022-09-13T10:11:11;2.78;;;2.58;;
22070;SDS011;11200;51.488;6.668;2022-09-13T10:13:55;3.00;;;2.80;;
22070;SDS011;11200;51.488;6.668;2022-09-13T10:16:26;2.90;;;2.60;;
22070;SDS011;11200;51.488;6.668;2022-09-13T10:18:58;4.05;;;3.00;;
22070;SDS011;11200;51.488;6.668;2022-09-13T10:22:01;2.95;;;2.75;;
22070;SDS011;11200;51.488;6.668;2022-09-13T10:24:29;3.10;;;2.78;;
22070;SDS011;11200;51.488;6.668;2022-09-13T10:26:55;3.00;;;2.70;;
22070;SDS011;11200;51.488;6.668;2022-09-13T10:29:22;3.45;;;3.08;;
22070;SDS011;11200;51.488;6.668;2022-09-13T10:31:50;3.83;;;2.90;;
22070;SDS011;11200;51.488;6.668;2022-09-13T10:34:30;2.80;;;2.60;;
22070;SDS011;11200;51.488;6.668;2022-09-13T10:37:14;4.22;;;2.78;;
22070;SDS011;11200;51.488;6.668;2022-09-13T10:40:02;2.80;;;2.60;;
22070;SDS011;11200;51.488;6.668;2022-09-13T10:42:33;2.97;;;2.67;;
22070;SDS011;11200;51.488;6.668;2022-09-13T10:47:54;3.17;;;2.92;;
22070;SDS011;11200;51.488;6.668;2022-09-13T10:50:26;3.38;;;3.08;;
22070;SDS011;11200;51.488;6.668;2022-09-13T10:52:58;2.88;;;2.65;;
22070;SDS011;11200;51.488;6.668;2022-09-13T10:55:25;3.15;;;2.85;;
22070;SDS011;11200;51.488;6.668;2022-09-13T11:03:16;4.45;;;3.00;;
22070;SDS011;11200;51.488;6.668;2022-09-13T11:06:08;2.90;;;2.60;;
22070;SDS011;11200;51.488;6.668;2022-09-13T11:11:31;3.15;;;2.85;;
22070;SDS011;11200;51.488;6.668;2022-09-13T11:14:09;3.00;;;2.40;;
22070;SDS011;11200;51.488;6.668;2022-09-13T11:16:51;2.40;;;2.20;;
22070;SDS011;11200;51.488;6.668;2022-09-13T11:28:34;2.60;;;2.35;;
22070;SDS011;11200;51.488;6.668;2022-09-13T11:31:29;3.15;;;2.65;;
22070;SDS011;11200;51.488;6.668;2022-09-13T11:39:57;3.42;;;2.58;;
22070;SDS011;11200;51.488;6.668;2022-09-13T11:42:50;2.70;;;2.30;;
22070;SDS011;11200;51.488;6.668;2022-09-13T11:45:29;2.70;;;2.33;;
22070;SDS011;11200;51.488;6.668;2022-09-13T11:48:18;2.80;;;2.60;;
22070;SDS011;11200;51.488;6.668;2022-09-13T11:53:39;2.80;;;2.22;;
22070;SDS011;11200;51.488;6.668;2022-09-13T12:01:46;2.78;;;2.22;;
22070;SDS011;11200;51.488;6.668;2022-09-13T12:04:17;2.50;;;2.30;;
22070;SDS011;11200;51.488;6.668;2022-09-13T12:07:02;3.92;;;2.25;;
22070;SDS011;11200;51.488;6.668;2022-09-13T12:09:43;2.55;;;2.20;;
22070;SDS011;11200;51.488;6.668;2022-09-13T12:12:17;2.70;;;2.50;;
22070;SDS011;11200;51.488;6.668;2022-09-13T12:14:53;2.28;;;2.05;;
22070;SDS011;11200;51.488;6.668;2022-09-13T12:19:56;2.25;;;2.05;;
22070;SDS011;11200;51.488;6.668;2022-09-13T12:22:25;2.80;;;2.60;;
22070;SDS011;11200;51.488;6.668;2022-09-13T12:24:55;2.60;;;2.40;;
22070;SDS011;11200;51.488;6.668;2022-09-13T12:27:36;2.60;;;2.40;;
22070;SDS011;11200;51.488;6.668;2022-09-13T12:30:27;2.90;;;2.47;;
22070;SDS011;11200;51.488;6.668;2022-09-13T12:33:05;3.15;;;2.70;;
22070;SDS011;11200;51.488;6.668;2022-09-13T12:40:53;4.60;;;2.83;;
22070;SDS011;11200;51.488;6.668;2022-09-13T12:49:14;3.13;;;2.83;;
22070;SDS011;11200;51.488;6.668;2022-09-13T12:51:50;2.83;;;2.63;;
22070;SDS011;11200;51.488;6.668;2022-09-13T13:00:41;3.53;;;2.80;;
22070;SDS011;11200;51.488;6.668;2022-09-13T13:05:37;3.05;;;2.45;;
22070;SDS011;11200;51.488;6.668;2022-09-13T13:08:24;3.28;;;2.97;;
22070;SDS011;11200;51.488;6.668;2022-09-13T13:11:09;3.38;;;2.78;;
22070;SDS011;11200;51.488;6.668;2022-09-13T13:13:38;3.40;;;3.10;;
22070;SDS011;11200;51.488;6.668;2022-09-13T13:18:59;3.65;;;2.83;;
22070;SDS011;11200;51.488;6.668;2022-09-13T13:26:49;2.88;;;2.53;;
22070;SDS011;11200;51.488;6.668;2022-09-13T13:29:29;4.47;;;3.28;;
22070;SDS011;11200;51.488;6.668;2022-09-13T13:36:47;3.97;;;3.33;;
22070;SDS011;11200;51.488;6.668;2022-09-13T13:59:56;2.60;;;2.40;;
22070;SDS011;11200;51.488;6.668;2022-09-13T14:05:31;2.45;;;2.25;;
22070;SDS011;11200;51.488;6.668;2022-09-13T14:21:18;2.92;;;2.60;;
22070;SDS011;11200;51.488;6.668;2022-09-13T14:23:43;3.13;;;2.83;;
22070;SDS011;11200;51.488;6.668;2022-09-13T14:26:12;3.00;;;2.70;;
22070;SDS011;11200;51.488;6.668;2022-09-13T14:28:38;3.08;;;2.60;;
22070;SDS011;11200;51.488;6.668;2022-09-13T14:31:05;2.78;;;2.58;;
22070;SDS011;11200;51.488;6.668;2022-09-13T14:33:32;3.28;;;2.85;;
22070;SDS011;11200;51.488;6.668;2022-09-13T14:38:26;2.85;;;2.45;;
22070;SDS011;11200;51.488;6.668;2022-09-13T14:41:09;3.63;;;2.72;;
22070;SDS011;11200;51.488;6.668;2022-09-13T14:43:41;2.80;;;2.60;;
22070;SDS011;11200;51.488;6.668;2022-09-13T14:49:01;2.70;;;2.50;;
22070;SDS011;11200;51.488;6.668;2022-09-13T14:51:40;3.25;;;3.00;;
22070;SDS011;11200;51.488;6.668;2022-09-13T14:54:54;3.15;;;2.72;;
22070;SDS011;11200;51.488;6.668;2022-09-13T14:57:01;3.15;;;2.78;;
22070;SDS011;11200;51.488;6.668;2022-09-13T14:59:39;3.00;;;2.80;;
22070;SDS011;11200;51.488;6.668;2022-09-13T15:02:15;3.08;;;2.78;;
22070;SDS011;11200;51.488;6.668;2022-09-13T15:04:47;2.50;;;2.30;;
22070;SDS011;11200;51.488;6.668;2022-09-13T15:07:22;2.80;;;2.60;;
22070;SDS011;11200;51.488;6.668;2022-09-13T15:09:54;2.65;;;2.45;;
22070;SDS011;11200;51.488;6.668;2022-09-13T15:12:23;2.63;;;2.40;;
22070;SDS011;11200;51.488;6.668;2022-09-13T15:18:03;2.72;;;2.53;;
22070;SDS011;11200;51.488;6.668;2022-09-13T15:20:57;3.03;;;2.38;;
22070;SDS011;11200;51.488;6.668;2022-09-13T15:26:07;3.22;;;2.92;;
22070;SDS011;11200;51.488;6.668;2022-09-13T15:31:08;3.63;;;2.60;;
22070;SDS011;11200;51.488;6.668;2022-09-13T15:33:43;3.70;;;2.60;;
22070;SDS011;11200;51.488;6.668;2022-09-13T15:39:00;2.70;;;2.50;;
22070;SDS011;11200;51.488;6.668;2022-09-13T15:41:38;3.25;;;2.50;;
22070;SDS011;11200;51.488;6.668;2022-09-13T15:44:06;2.65;;;2.45;;
22070;SDS011;11200;51.488;6.668;2022-09-13T15:46:33;3.17;;;2.75;;
22070;SDS011;11200;51.488;6.668;2022-09-13T15:49:08;4.10;;;2.70;;
22070;SDS011;11200;51.488;6.668;2022-09-13T15:51:41;2.92;;;2.60;;
22070;SDS011;11200;51.488;6.668;2022-09-13T15:54:11;2.90;;;2.70;;
22070;SDS011;11200;51.488;6.668;2022-09-13T15:56:40;2.80;;;2.60;;
22070;SDS011;11200;51.488;6.668;2022-09-13T15:59:11;2.63;;;2.42;;
22070;SDS011;11200;51.488;6.668;2022-09-13T16:01:38;2.97;;;2.67;;
22070;SDS011;11200;51.488;6.668;2022-09-13T16:04:03;2.78;;;2.58;;
22070;SDS011;11200;51.488;6.668;2022-09-13T16:06:30;3.10;;;2.80;;
22070;SDS011;11200;51.488;6.668;2022-09-13T16:08:55;2.70;;;2.50;;
22070;SDS011;11200;51.488;6.668;2022-09-13T16:11:21;2.70;;;2.45;;
22070;SDS011;11200;51.488;6.668;2022-09-13T16:13:46;3.63;;;2.50;;
22070;SDS011;11200;51.488;6.668;2022-09-13T16:16:12;2.58;;;2.38;;
22070;SDS011;11200;51.488;6.668;2022-09-13T16:18:38;3.15;;;2.70;;
22070;SDS011;11200;51.488;6.668;2022-09-13T16:21:04;2.88;;;2.67;;
22070;SDS011;11200;51.488;6.668;2022-09-13T16:23:30;2.92;;;2.45;;
22070;SDS011;11200;51.488;6.668;2022-09-13T16:25:56;2.80;;;2.60;;
22070;SDS011;11200;51.488;6.668;2022-09-13T16:28:24;3.50;;;2.72;;
22070;SDS011;11200;51.488;6.668;2022-09-13T16:30:50;2.60;;;2.40;;
22070;SDS011;11200;51.488;6.668;2022-09-13T16:33:16;2.72;;;2.38;;
22070;SDS011;11200;51.488;6.668;2022-09-13T16:35:43;3.00;;;2.80;;
22070;SDS011;11200;51.488;6.668;2022-09-13T16:38:10;2.60;;;2.40;;
22070;SDS011;11200;51.488;6.668;2022-09-13T16:40:40;2.70;;;2.50;;
22070;SDS011;11200;51.488;6.668;2022-09-13T16:43:06;3.75;;;2.60;;
22070;SDS011;11200;51.488;6.668;2022-09-13T16:45:33;3.90;;;2.42;;
22070;SDS011;11200;51.488;6.668;2022-09-13T16:47:58;3.33;;;2.85;;
22070;SDS011;11200;51.488;6.668;2022-09-13T16:50:24;5.00;;;2.97;;
22070;SDS011;11200;51.488;6.668;2022-09-13T16:52:50;2.40;;;2.30;;
22070;SDS011;11200;51.488;6.668;2022-09-13T16:55:15;2.78;;;2.50;;
22070;SDS011;11200;51.488;6.668;2022-09-13T16:57:41;2.55;;;2.35;;
22070;SDS011;11200;51.488;6.668;2022-09-13T17:00:08;2.80;;;2.30;;
22070;SDS011;11200;51.488;6.668;2022-09-13T17:02:35;3.63;;;2.38;;
22070;SDS011;11200;51.488;6.668;2022-09-13T17:05:01;2.63;;;2.42;;
22070;SDS011;11200;51.488;6.668;2022-09-13T17:07:29;2.72;;;2.53;;
22070;SDS011;11200;51.488;6.668;2022-09-13T17:09:55;2.70;;;2.50;;
22070;SDS011;11200;51.488;6.668;2022-09-13T17:12:21;2.70;;;2.50;;
22070;SDS011;11200;51.488;6.668;2022-09-13T17:14:47;2.70;;;2.50;;
22070;SDS011;11200;51.488;6.668;2022-09-13T17:17:14;2.50;;;2.30;;
22070;SDS011;11200;51.488;6.668;2022-09-13T17:19:41;2.75;;;2.55;;
22070;SDS011;11200;51.488;6.668;2022-09-13T17:22:08;2.45;;;2.25;;
22070;SDS011;11200;51.488;6.668;2022-09-13T17:24:35;2.97;;;2.50;;
22070;SDS011;11200;51.488;6.668;2022-09-13T17:27:01;2.50;;;2.30;;
22070;SDS011;11200;51.488;6.668;2022-09-13T17:29:30;2.97;;;2.65;;
22070;SDS011;11200;51.488;6.668;2022-09-13T17:31:57;2.97;;;2.50;;
22070;SDS011;11200;51.488;6.668;2022-09-13T17:34:24;2.58;;;2.38;;
22070;SDS011;11200;51.488;6.668;2022-09-13T17:36:50;2.58;;;2.30;;
22070;SDS011;11200;51.488;6.668;2022-09-13T17:39:16;2.60;;;2.40;;
22070;SDS011;11200;51.488;6.668;2022-09-13T17:41:43;2.80;;;2.50;;
22070;SDS011;11200;51.488;6.668;2022-09-13T17:44:08;2.60;;;2.40;;
22070;SDS011;11200;51.488;6.668;2022-09-13T17:46:39;2.50;;;2.30;;
22070;SDS011;11200;51.488;6.668;2022-09-13T17:49:05;2.20;;;2.10;;
22070;SDS011;11200;51.488;6.668;2022-09-13T17:51:31;2.70;;;2.50;;
22070;SDS011;11200;51.488;6.668;2022-09-13T17:54:01;2.47;;;2.30;;
22070;SDS011;11200;51.488;6.668;2022-09-13T17:56:30;2.38;;;2.25;;
22070;SDS011;11200;51.488;6.668;2022-09-13T18:01:41;2.22;;;2.03;;
22070;SDS011;11200;51.488;6.668;2022-09-13T18:04:09;2.13;;;1.92;;
22070;SDS011;11200;51.488;6.668;2022-09-13T18:06:35;2.35;;;2.15;;
22070;SDS011;11200;51.488;6.668;2022-09-13T18:09:06;3.30;;;2.30;;
22070;SDS011;11200;51.488;6.668;2022-09-13T18:11:32;3.33;;;2.20;;
22070;SDS011;11200;51.488;6.668;2022-09-13T18:13:58;2.00;;;1.90;;
22070;SDS011;11200;51.488;6.668;2022-09-13T18:16:24;2.50;;;2.30;;
22070;SDS011;11200;51.488;6.668;2022-09-13T18:18:53;1.90;;;1.80;;
22070;SDS011;11200;51.488;6.668;2022-09-13T18:21:20;2.63;;;2.10;;
22070;SDS011;11200;51.488;6.668;2022-09-13T18:23:49;2.33;;;2.13;;
22070;SDS011;11200;51.488;6.668;2022-09-13T18:26:18;2.30;;;2.10;;
22070;SDS011;11200;51.488;6.668;2022-09-13T18:28:45;3.25;;;2.25;;
22070;SDS011;11200;51.488;6.668;2022-09-13T18:31:15;2.40;;;2.20;;
22070;SDS011;11200;51.488;6.668;2022-09-13T18:33:54;2.47;;;2.25;;